createdAt,value
2023-05-19T00:02:11.431Z,21.08
2023-05-19T00:04:40.738Z,21.07
2023-05-19T00:07:10.567Z,21.08
2023-05-19T00:12:03.899Z,21.08
2023-05-19T00:16:58.078Z,21.06
2023-05-19T00:21:51.741Z,21.09
2023-05-19T00:24:18.389Z,21.08
2023-05-19T00:26:44.910Z,21.08
2023-05-19T00:29:11.622Z,21.07
2023-05-19T00:31:38.157Z,21.08
2023-05-19T00:36:30.101Z,21.08
2023-05-19T00:38:56.650Z,21.07
2023-05-19T00:41:23.320Z,21.08
2023-05-19T00:43:50.920Z,21.11
2023-05-19T00:46:18.430Z,21.10
2023-05-19T00:48:45.673Z,21.10
2023-05-19T00:51:14.896Z,21.09
2023-05-19T00:53:41.631Z,21.09
2023-05-19T00:56:08.203Z,21.07
2023-05-19T00:58:34.833Z,21.08
2023-05-19T01:01:05.333Z,21.05
2023-05-19T01:03:32.203Z,21.06
2023-05-19T01:06:01.800Z,21.07
2023-05-19T01:08:29.451Z,21.06
2023-05-19T01:10:56.148Z,21.03
2023-05-19T01:13:22.993Z,21.04
2023-05-19T01:16:08.095Z,21.03
2023-05-19T01:18:34.890Z,21.03
2023-05-19T01:21:23.624Z,21.04
2023-05-19T01:23:54.366Z,21.05
2023-05-19T01:26:27.017Z,21.03
2023-05-19T01:28:53.693Z,21.04
2023-05-19T01:31:23.949Z,21.04
2023-05-19T01:33:52.349Z,21.04
2023-05-19T01:36:19.974Z,21.04
2023-05-19T01:38:47.966Z,21.03
2023-05-19T01:41:15.933Z,21.04
2023-05-19T01:43:42.731Z,21.03
2023-05-19T01:46:10.136Z,21.03
2023-05-19T01:48:36.936Z,21.02
2023-05-19T01:51:03.535Z,21.03
2023-05-19T01:53:30.211Z,21.04
2023-05-19T01:55:57.561Z,21.05
2023-05-19T01:58:27.150Z,21.04
2023-05-19T02:00:59.364Z,21.05
2023-05-19T02:06:00.344Z,21.04
2023-05-19T02:08:30.003Z,21.03
2023-05-19T02:11:24.235Z,21.03
2023-05-19T02:13:54.227Z,21.02
2023-05-19T02:16:23.311Z,21.02
2023-05-19T02:18:50.026Z,21.03
2023-05-19T02:23:42.375Z,21.00
2023-05-19T02:26:08.951Z,21.01
2023-05-19T02:31:05.354Z,21.00
2023-05-19T02:33:31.897Z,21.01
2023-05-19T02:35:58.462Z,21.01
2023-05-19T02:38:25.034Z,21.01
2023-05-19T02:40:52.788Z,21.00
2023-05-19T02:43:19.494Z,21.01
2023-05-19T02:45:46.385Z,20.99
2023-05-19T02:48:12.928Z,20.99
2023-05-19T02:50:39.906Z,20.98
2023-05-19T02:53:06.559Z,20.99
2023-05-19T02:55:33.189Z,21.00
2023-05-19T02:58:00.054Z,20.98
2023-05-19T03:00:26.658Z,20.98
2023-05-19T03:02:53.238Z,20.98
2023-05-19T03:05:20.276Z,20.98
2023-05-19T03:07:46.829Z,20.98
2023-05-19T03:10:13.438Z,20.99
2023-05-19T03:12:40.096Z,20.96
2023-05-19T03:15:07.003Z,20.99
2023-05-19T03:17:34.527Z,20.99
2023-05-19T03:20:01.689Z,20.96
2023-05-19T03:22:28.275Z,20.97
2023-05-19T03:24:54.909Z,20.95
2023-05-19T03:27:21.485Z,20.95
2023-05-19T03:29:48.281Z,20.95
2023-05-19T03:34:48.352Z,20.95
2023-05-19T03:37:15.010Z,20.94
2023-05-19T03:39:41.601Z,20.94
2023-05-19T03:42:08.170Z,20.95
2023-05-19T03:44:34.703Z,20.93
2023-05-19T03:47:01.286Z,20.94
2023-05-19T03:51:54.122Z,20.93
2023-05-19T03:54:22.589Z,20.92
2023-05-19T03:56:49.512Z,20.91
2023-05-19T03:59:16.400Z,20.91
2023-05-19T04:01:43.071Z,20.90
2023-05-19T04:04:09.770Z,20.89
2023-05-19T04:06:36.418Z,20.90
2023-05-19T04:09:04.506Z,20.92
2023-05-19T04:11:31.064Z,20.89
2023-05-19T04:13:57.609Z,20.90
2023-05-19T04:16:24.275Z,20.90
2023-05-19T04:18:51.208Z,20.90
2023-05-19T04:21:17.897Z,20.89
2023-05-19T04:23:44.419Z,20.91
2023-05-19T04:26:12.346Z,20.91
2023-05-19T04:28:42.000Z,20.91
2023-05-19T04:33:39.375Z,20.88
2023-05-19T04:36:10.747Z,20.89
2023-05-19T04:38:39.991Z,20.88
2023-05-19T04:41:10.262Z,20.90
2023-05-19T04:43:37.142Z,20.89
2023-05-19T04:46:06.436Z,20.88
2023-05-19T04:48:33.449Z,20.88
2023-05-19T04:51:02.979Z,20.87
2023-05-19T04:53:29.569Z,20.88
2023-05-19T04:56:01.005Z,20.85
2023-05-19T04:58:27.761Z,20.84
2023-05-19T05:00:58.718Z,20.86
2023-05-19T05:03:26.569Z,20.87
2023-05-19T05:05:53.273Z,20.86
2023-05-19T05:08:26.159Z,20.88
2023-05-19T05:10:53.437Z,20.88
2023-05-19T05:13:23.563Z,20.84
2023-05-19T05:15:52.317Z,20.84
2023-05-19T05:18:19.223Z,20.84
2023-05-19T05:20:46.939Z,20.83
2023-05-19T05:23:17.051Z,20.84
2023-05-19T05:25:44.276Z,20.85
2023-05-19T05:28:10.845Z,20.84
2023-05-19T05:30:37.443Z,20.83
2023-05-19T05:33:04.098Z,20.84
2023-05-19T05:35:31.059Z,20.83
2023-05-19T05:37:57.700Z,20.82
2023-05-19T05:40:24.288Z,20.83
2023-05-19T05:42:51.162Z,20.83
2023-05-19T05:45:17.690Z,20.80
2023-05-19T05:47:44.431Z,20.81
2023-05-19T05:50:11.382Z,20.81
2023-05-19T05:52:40.075Z,20.81
2023-05-19T05:55:07.019Z,20.81
2023-05-19T05:57:35.516Z,20.79
2023-05-19T06:00:02.449Z,20.78
2023-05-19T06:02:30.139Z,20.80
2023-05-19T06:04:57.118Z,20.79
2023-05-19T06:07:24.481Z,20.80
2023-05-19T06:09:51.226Z,20.85
2023-05-19T06:12:26.775Z,20.82
2023-05-19T06:14:53.406Z,20.82
2023-05-19T06:17:19.997Z,20.79
2023-05-19T06:19:46.520Z,20.85
2023-05-19T06:22:13.078Z,20.76
2023-05-19T06:24:39.761Z,20.67
2023-05-19T06:27:06.352Z,20.35
2023-05-19T06:29:32.931Z,20.26
2023-05-19T06:31:59.621Z,20.19
2023-05-19T06:34:26.876Z,20.20
2023-05-19T06:36:53.503Z,20.24
2023-05-19T06:39:20.070Z,20.32
2023-05-19T06:41:46.689Z,20.33
2023-05-19T06:44:13.302Z,20.37
2023-05-19T06:49:06.168Z,20.38
2023-05-19T06:51:32.772Z,20.39
2023-05-19T06:53:59.348Z,20.35
2023-05-19T06:56:25.943Z,20.35
2023-05-19T06:58:52.471Z,20.30
2023-05-19T07:01:19.133Z,20.32
2023-05-19T07:03:45.886Z,20.29
2023-05-19T07:06:13.010Z,20.28
2023-05-19T07:08:39.565Z,20.28
2023-05-19T07:11:06.236Z,20.29
2023-05-19T07:13:33.075Z,20.26
2023-05-19T07:15:59.642Z,20.24
2023-05-19T07:18:26.690Z,20.24
2023-05-19T07:20:53.916Z,20.21
2023-05-19T07:23:20.637Z,20.23
2023-05-19T07:25:47.266Z,20.23
2023-05-19T07:30:39.333Z,20.28
2023-05-19T07:35:33.223Z,20.26
2023-05-19T07:37:59.870Z,20.32
2023-05-19T07:40:26.442Z,20.35
2023-05-19T07:42:52.980Z,20.34
2023-05-19T07:45:19.659Z,20.34
2023-05-19T07:47:46.360Z,20.33
2023-05-19T07:50:12.999Z,20.34
2023-05-19T07:52:39.550Z,20.31
2023-05-19T07:55:06.301Z,20.30
2023-05-19T07:57:32.866Z,20.30
2023-05-19T07:59:59.488Z,20.31
2023-05-19T08:02:26.193Z,20.29
2023-05-19T08:04:53.256Z,20.32
2023-05-19T08:07:20.028Z,20.31
2023-05-19T08:09:46.576Z,20.32
2023-05-19T08:12:13.134Z,20.34
2023-05-19T08:17:06.321Z,20.33
2023-05-19T08:19:32.951Z,20.33
2023-05-19T08:22:01.315Z,20.32
2023-05-19T08:24:32.894Z,20.35
2023-05-19T08:26:59.542Z,20.37
2023-05-19T08:29:26.000Z,20.37
2023-05-19T08:31:53.282Z,20.36
2023-05-19T08:34:20.081Z,20.36
2023-05-19T08:36:47.819Z,20.37
2023-05-19T08:39:16.447Z,20.37
2023-05-19T08:41:43.120Z,20.35
2023-05-19T08:44:10.007Z,20.36
2023-05-19T08:46:36.602Z,20.36
2023-05-19T08:49:05.578Z,20.35
2023-05-19T08:51:37.412Z,20.36
2023-05-19T08:54:15.024Z,20.35
2023-05-19T08:56:43.523Z,20.38
2023-05-19T08:59:10.312Z,20.35
2023-05-19T09:04:09.208Z,20.37
2023-05-19T09:06:35.999Z,20.38
2023-05-19T09:09:04.027Z,20.37
2023-05-19T09:11:30.717Z,20.37
2023-05-19T09:13:57.406Z,20.38
2023-05-19T09:16:24.409Z,20.38
2023-05-19T09:18:56.264Z,20.36
2023-05-19T09:21:33.013Z,20.37
2023-05-19T09:24:10.026Z,20.39
2023-05-19T09:26:40.829Z,20.38
2023-05-19T09:29:17.819Z,20.41
2023-05-19T09:31:56.158Z,20.42
2023-05-19T09:34:25.136Z,20.40
2023-05-19T09:36:53.553Z,20.42
2023-05-19T09:39:22.261Z,20.39
2023-05-19T09:41:53.917Z,20.41
2023-05-19T09:44:21.176Z,20.41
2023-05-19T09:46:48.721Z,20.42
2023-05-19T09:49:19.056Z,20.41
2023-05-19T09:51:46.179Z,20.41
2023-05-19T09:54:16.572Z,20.41
2023-05-19T09:56:43.470Z,20.41
2023-05-19T09:59:10.367Z,20.42
2023-05-19T10:01:40.473Z,20.40
2023-05-19T10:04:07.627Z,20.40
2023-05-19T10:06:34.878Z,20.41
2023-05-19T10:09:02.247Z,20.41
2023-05-19T10:11:30.394Z,20.40
2023-05-19T10:13:57.084Z,20.41
2023-05-19T10:16:26.856Z,20.40
2023-05-19T10:18:55.615Z,20.43
2023-05-19T10:21:22.337Z,20.43
2023-05-19T10:23:49.287Z,20.45
2023-05-19T10:26:16.852Z,20.46
2023-05-19T10:28:45.797Z,20.44
2023-05-19T10:31:17.318Z,20.48
2023-05-19T10:33:57.219Z,20.49
2023-05-19T10:36:24.206Z,20.52
2023-05-19T10:38:59.058Z,20.51
2023-05-19T10:41:42.059Z,20.54
2023-05-19T10:44:27.429Z,20.54
2023-05-19T10:49:22.859Z,20.55
2023-05-19T10:51:50.235Z,20.56
2023-05-19T10:54:18.633Z,20.57
2023-05-19T10:56:47.994Z,20.55
2023-05-19T10:59:33.776Z,20.55
2023-05-19T11:02:06.958Z,20.55
2023-05-19T11:04:53.737Z,20.57
2023-05-19T11:07:21.988Z,20.60
2023-05-19T11:09:52.511Z,20.61
2023-05-19T11:12:24.828Z,20.62
2023-05-19T11:14:55.305Z,20.64
2023-05-19T11:17:23.944Z,20.65
2023-05-19T11:19:57.239Z,20.68
2023-05-19T11:22:36.484Z,20.69
2023-05-19T11:25:04.453Z,20.70
2023-05-19T11:27:34.708Z,20.69
2023-05-19T11:30:02.457Z,20.69
2023-05-19T11:32:30.348Z,20.68
2023-05-19T11:34:57.985Z,20.69
2023-05-19T11:39:52.428Z,20.70
2023-05-19T11:42:19.473Z,20.70
2023-05-19T11:44:46.611Z,20.72
2023-05-19T11:47:14.647Z,20.71
2023-05-19T11:49:44.905Z,20.72
2023-05-19T11:52:26.887Z,20.72
2023-05-19T11:54:53.771Z,20.75
2023-05-19T11:57:21.138Z,20.73
2023-05-19T11:59:49.926Z,20.71
2023-05-19T12:02:26.271Z,20.72
2023-05-19T12:04:53.484Z,20.72
2023-05-19T12:07:23.100Z,20.71
2023-05-19T12:09:50.590Z,20.73
2023-05-19T12:14:49.082Z,20.72
2023-05-19T12:17:17.103Z,20.72
2023-05-19T12:19:44.943Z,20.73
2023-05-19T12:22:11.992Z,20.73
2023-05-19T12:24:39.023Z,20.74
2023-05-19T12:27:13.751Z,20.74
2023-05-19T12:32:08.135Z,20.73
2023-05-19T12:34:37.953Z,20.73
2023-05-19T12:37:05.273Z,20.73
2023-05-19T12:39:32.554Z,20.75
2023-05-19T12:42:07.973Z,20.74
2023-05-19T12:44:47.793Z,20.75
2023-05-19T12:47:15.294Z,20.77
2023-05-19T12:49:55.117Z,20.79
2023-05-19T12:54:58.366Z,20.78
2023-05-19T12:57:25.688Z,20.80
2023-05-19T12:59:52.718Z,20.79
2023-05-19T13:02:32.895Z,20.81
2023-05-19T13:04:59.746Z,20.82
2023-05-19T13:07:26.380Z,20.81
2023-05-19T13:09:53.159Z,20.80
2023-05-19T13:12:26.957Z,20.79
2023-05-19T13:14:55.500Z,20.79
2023-05-19T13:17:22.458Z,20.79
2023-05-19T13:19:49.196Z,20.80
2023-05-19T13:22:15.916Z,20.78
2023-05-19T13:24:42.824Z,20.80
2023-05-19T13:27:09.608Z,20.81
2023-05-19T13:29:36.335Z,20.81
2023-05-19T13:32:03.223Z,20.80
2023-05-19T13:34:29.922Z,20.79
2023-05-19T13:36:56.946Z,20.78
2023-05-19T13:39:23.702Z,20.79
2023-05-19T13:41:50.769Z,20.78
2023-05-19T13:44:17.460Z,20.79
2023-05-19T13:46:46.056Z,20.79
2023-05-19T13:50:34.388Z,21.38
2023-05-19T13:55:27.644Z,21.43
2023-05-19T13:57:54.312Z,21.46
2023-05-19T14:00:22.195Z,21.49
2023-05-19T14:02:48.899Z,21.53
2023-05-19T14:05:15.611Z,21.56
2023-05-19T14:07:42.599Z,21.59
2023-05-19T14:10:09.488Z,21.63
2023-05-19T14:12:49.313Z,21.66
2023-05-19T14:15:23.160Z,21.69
2023-05-19T14:17:49.914Z,21.70
2023-05-19T14:20:16.554Z,21.69
2023-05-19T14:22:43.313Z,21.71
2023-05-19T14:25:10.149Z,21.72
2023-05-19T14:27:36.895Z,21.75
2023-05-19T14:30:03.544Z,21.74
2023-05-19T14:32:30.711Z,21.77
2023-05-19T14:34:57.490Z,21.79
2023-05-19T14:37:24.369Z,21.80
2023-05-19T14:39:50.936Z,21.81
2023-05-19T14:42:17.452Z,21.80
2023-05-19T14:44:43.986Z,21.78
2023-05-19T14:47:11.499Z,21.77
2023-05-19T14:49:38.237Z,21.81
2023-05-19T14:52:07.790Z,21.83
2023-05-19T14:54:34.498Z,21.86
2023-05-19T14:57:01.915Z,21.86
2023-05-19T14:59:29.777Z,21.86
2023-05-19T15:01:56.488Z,21.84
2023-05-19T15:04:23.398Z,21.86
2023-05-19T15:06:58.112Z,21.87
2023-05-19T15:09:32.270Z,21.87
2023-05-19T15:12:01.352Z,21.87
2023-05-19T15:14:30.737Z,21.89
2023-05-19T15:16:57.750Z,21.92
2023-05-19T15:19:24.810Z,21.92
2023-05-19T15:21:51.686Z,21.94
2023-05-19T15:24:19.261Z,22.01
2023-05-19T15:26:46.024Z,22.01
2023-05-19T15:29:12.583Z,22.06
2023-05-19T15:31:39.365Z,22.07
2023-05-19T15:34:06.177Z,22.07
2023-05-19T15:36:32.854Z,22.07
2023-05-19T15:38:59.471Z,22.16
2023-05-19T15:41:26.822Z,22.08
2023-05-19T15:43:53.895Z,22.16
2023-05-19T15:46:20.764Z,22.12
2023-05-19T15:48:47.568Z,22.14
2023-05-19T15:51:14.305Z,22.17
2023-05-19T15:53:41.005Z,22.17
2023-05-19T15:56:07.678Z,22.16
2023-05-19T15:58:34.417Z,22.16
2023-05-19T16:01:01.559Z,22.14
2023-05-19T16:03:28.262Z,22.18
2023-05-19T16:05:55.026Z,22.24
2023-05-19T16:08:21.764Z,22.20
2023-05-19T16:10:48.583Z,22.21
2023-05-19T16:13:15.499Z,22.19
2023-05-19T16:15:42.254Z,22.19
2023-05-19T16:18:09.065Z,22.13
2023-05-19T16:20:35.891Z,22.16
2023-05-19T16:23:03.353Z,22.17
2023-05-19T16:25:30.234Z,22.12
2023-05-19T16:27:57.087Z,22.07
2023-05-19T16:30:24.683Z,22.09
2023-05-19T16:32:53.225Z,22.11
2023-05-19T16:35:20.463Z,22.11
2023-05-19T16:37:47.188Z,22.14
2023-05-19T16:40:13.810Z,22.10
2023-05-19T16:42:47.296Z,22.11
2023-05-19T16:45:13.860Z,22.11
2023-05-19T16:47:40.605Z,22.05
2023-05-19T16:50:07.509Z,22.08
2023-05-19T16:52:34.247Z,22.09
2023-05-19T16:55:00.965Z,22.06
2023-05-19T16:57:27.499Z,22.08
2023-05-19T16:59:54.295Z,22.07
2023-05-19T17:02:27.069Z,22.06
2023-05-19T17:04:53.811Z,22.02
2023-05-19T17:07:20.428Z,21.98
2023-05-19T17:09:47.037Z,21.96
2023-05-19T17:12:22.221Z,21.99
2023-05-19T17:14:50.459Z,22.02
2023-05-19T17:17:17.125Z,21.99
2023-05-19T17:19:43.882Z,21.97
2023-05-19T17:22:10.565Z,21.93
2023-05-19T17:24:37.262Z,21.94
2023-05-19T17:29:30.263Z,21.93
2023-05-19T17:31:57.017Z,21.88
2023-05-19T17:34:23.729Z,21.94
2023-05-19T17:36:50.332Z,21.90
2023-05-19T17:39:16.863Z,21.88
2023-05-19T17:41:43.424Z,21.88
2023-05-19T17:44:09.946Z,21.86
2023-05-19T17:46:38.877Z,21.82
2023-05-19T17:49:06.200Z,21.80
2023-05-19T17:51:33.034Z,21.80
2023-05-19T17:53:59.729Z,21.85
2023-05-19T17:56:26.953Z,21.80
2023-05-19T17:58:53.661Z,21.81
2023-05-19T18:01:23.824Z,21.82
2023-05-19T18:03:50.933Z,21.80
2023-05-19T18:06:18.089Z,21.76
2023-05-19T18:08:47.219Z,21.81
2023-05-19T18:11:16.127Z,21.80
2023-05-19T18:13:43.243Z,21.84
2023-05-19T18:16:10.406Z,21.81
2023-05-19T18:18:37.584Z,21.81
2023-05-19T18:21:04.322Z,21.79
2023-05-19T18:23:31.037Z,21.78
2023-05-19T18:25:57.576Z,21.80
2023-05-19T18:28:24.137Z,21.84
2023-05-19T18:31:17.624Z,21.82
2023-05-19T18:33:44.337Z,21.78
2023-05-19T18:36:10.877Z,21.78
2023-05-19T18:38:37.422Z,21.78
2023-05-19T18:41:06.266Z,21.68
2023-05-19T18:43:32.768Z,21.71
2023-05-19T18:45:59.503Z,21.71
2023-05-19T18:48:26.064Z,21.68
2023-05-19T18:50:52.580Z,21.67
2023-05-19T18:53:19.123Z,21.68
2023-05-19T18:55:45.725Z,21.71
2023-05-19T18:58:12.432Z,21.65
2023-05-19T19:00:38.919Z,21.66
2023-05-19T19:03:05.674Z,21.69
2023-05-19T19:05:32.319Z,21.66
2023-05-19T19:07:58.871Z,21.66
2023-05-19T19:10:25.770Z,21.65
2023-05-19T19:12:52.431Z,21.63
2023-05-19T19:15:19.070Z,21.65
2023-05-19T19:17:45.822Z,21.65
2023-05-19T19:20:12.757Z,21.62
2023-05-19T19:22:39.528Z,21.67
2023-05-19T19:25:06.440Z,21.66
2023-05-19T19:27:35.696Z,21.64
2023-05-19T19:30:02.388Z,21.62
2023-05-19T19:32:29.121Z,21.62
2023-05-19T19:34:56.020Z,21.64
2023-05-19T19:37:22.625Z,21.62
2023-05-19T19:39:49.218Z,21.66
2023-05-19T19:44:42.496Z,21.66
2023-05-19T19:47:09.191Z,21.67
2023-05-19T19:49:37.141Z,21.58
2023-05-19T19:52:03.761Z,21.57
2023-05-19T19:54:30.791Z,21.58
2023-05-19T19:56:57.329Z,21.56
2023-05-19T20:01:51.340Z,21.53
2023-05-19T20:04:18.039Z,21.55
2023-05-19T20:06:44.710Z,21.53
2023-05-19T20:09:11.375Z,21.54
2023-05-19T20:11:37.943Z,21.56
2023-05-19T20:14:04.499Z,21.53
2023-05-19T20:16:31.622Z,21.56
2023-05-19T20:18:58.281Z,21.56
2023-05-19T20:23:51.341Z,21.60
2023-05-19T20:26:17.934Z,21.62
2023-05-19T20:28:44.486Z,21.63
2023-05-19T20:31:11.047Z,21.61
2023-05-19T20:33:37.750Z,21.60
2023-05-19T20:36:05.370Z,21.61
2023-05-19T20:38:31.891Z,21.63
2023-05-19T20:40:58.407Z,21.64
2023-05-19T20:45:51.462Z,21.63
2023-05-19T20:48:18.214Z,21.64
2023-05-19T20:50:44.840Z,21.60
2023-05-19T20:53:11.470Z,21.62
2023-05-19T20:55:38.811Z,21.61
2023-05-19T20:58:05.558Z,21.60
2023-05-19T21:00:32.699Z,21.59
2023-05-19T21:02:59.706Z,21.57
2023-05-19T21:05:26.301Z,21.60
2023-05-19T21:10:18.393Z,21.59
2023-05-19T21:12:44.981Z,21.60
2023-05-19T21:15:11.765Z,21.58
2023-05-19T21:17:38.531Z,21.59
2023-05-19T21:20:05.447Z,21.59
2023-05-19T21:22:32.202Z,21.59
2023-05-19T21:24:58.838Z,21.59
2023-05-19T21:27:25.649Z,21.57
2023-05-19T21:29:58.052Z,21.56
2023-05-19T21:32:24.899Z,21.55
2023-05-19T21:34:51.561Z,21.55
2023-05-19T21:37:18.224Z,21.55
2023-05-19T21:39:45.038Z,21.53
2023-05-19T21:44:52.333Z,21.55
2023-05-19T21:49:45.396Z,21.56
2023-05-19T21:52:12.132Z,21.58
2023-05-19T21:54:38.786Z,21.58
2023-05-19T21:57:05.751Z,21.55
2023-05-19T21:59:32.477Z,21.54
2023-05-19T22:01:59.140Z,21.58
2023-05-19T22:04:26.001Z,21.55
2023-05-19T22:06:52.837Z,21.57
2023-05-19T22:09:19.397Z,21.56
2023-05-19T22:11:46.421Z,21.57
2023-05-19T22:14:13.084Z,21.56
2023-05-19T22:16:39.697Z,21.58
2023-05-19T22:19:06.504Z,21.57
2023-05-19T22:21:33.383Z,21.56
2023-05-19T22:23:59.960Z,21.59
2023-05-19T22:26:27.286Z,21.56
2023-05-19T22:28:54.039Z,21.54
2023-05-19T22:31:20.782Z,21.55
2023-05-19T22:33:47.405Z,21.52
2023-05-19T22:36:16.127Z,21.50
2023-05-19T22:38:42.754Z,21.52
2023-05-19T22:41:09.291Z,21.53
2023-05-19T22:43:35.917Z,21.54
2023-05-19T22:46:02.430Z,21.52
2023-05-19T22:48:29.323Z,21.51
2023-05-19T22:50:56.113Z,21.53
2023-05-19T22:53:23.298Z,21.53
2023-05-19T22:55:51.071Z,21.51
2023-05-19T22:58:18.188Z,21.52
2023-05-19T23:00:45.395Z,21.51
2023-05-19T23:03:12.387Z,21.50
2023-05-19T23:05:40.015Z,21.49
2023-05-19T23:08:07.054Z,21.49
2023-05-19T23:10:33.918Z,21.48
2023-05-19T23:13:00.825Z,21.47
2023-05-19T23:15:27.844Z,21.47
2023-05-19T23:17:54.724Z,21.46
2023-05-19T23:20:21.315Z,21.47
2023-05-19T23:22:47.848Z,21.48
2023-05-19T23:25:14.412Z,21.47
2023-05-19T23:27:41.095Z,21.46
2023-05-19T23:30:07.993Z,21.45
2023-05-19T23:32:35.056Z,21.45
2023-05-19T23:35:12.009Z,21.44
2023-05-19T23:37:38.628Z,21.44
2023-05-19T23:40:06.437Z,21.45
2023-05-19T23:42:33.055Z,21.43
2023-05-19T23:44:59.633Z,21.43
2023-05-19T23:47:26.730Z,21.43
2023-05-19T23:49:53.247Z,21.42
2023-05-19T23:52:25.876Z,21.42
2023-05-19T23:54:52.374Z,21.38
2023-05-19T23:57:20.229Z,21.38
2023-05-19T23:59:46.824Z,21.38
